sensor_id;sensor_type;location;lat;lon;timestamp;temperature;humidity
78619;DHT22;67941;52.506;5.470;2023-04-24T00:01:15;11.10;80.50
78619;DHT22;67941;52.506;5.470;2023-04-24T00:03:45;11.10;80.50
78619;DHT22;67941;52.506;5.470;2023-04-24T00:06:14;11.10;80.50
78619;DHT22;67941;52.506;5.470;2023-04-24T00:08:43;11.10;80.40
78619;DHT22;67941;52.506;5.470;2023-04-24T00:11:11;11.10;80.50
78619;DHT22;67941;52.506;5.470;2023-04-24T00:13:40;11.00;80.50
78619;DHT22;67941;52.506;5.470;2023-04-24T00:16:09;11.00;80.50
78619;DHT22;67941;52.506;5.470;2023-04-24T00:18:41;11.00;80.70
78619;DHT22;67941;52.506;5.470;2023-04-24T00:21:10;11.00;80.70
78619;DHT22;67941;52.506;5.470;2023-04-24T00:23:39;11.00;80.70
78619;DHT22;67941;52.506;5.470;2023-04-24T00:26:08;11.00;80.70
78619;DHT22;67941;52.506;5.470;2023-04-24T00:28:37;11.00;80.80
78619;DHT22;67941;52.506;5.470;2023-04-24T00:31:06;11.00;80.80
78619;DHT22;67941;52.506;5.470;2023-04-24T00:33:35;11.00;80.80
78619;DHT22;67941;52.506;5.470;2023-04-24T00:36:07;11.10;80.80
78619;DHT22;67941;52.506;5.470;2023-04-24T00:38:36;11.10;80.80
78619;DHT22;67941;52.506;5.470;2023-04-24T00:41:04;11.10;80.80
78619;DHT22;67941;52.506;5.470;2023-04-24T00:43:33;11.10;80.70
78619;DHT22;67941;52.506;5.470;2023-04-24T00:46:02;11.10;80.70
78619;DHT22;67941;52.506;5.470;2023-04-24T00:48:32;11.10;80.70
78619;DHT22;67941;52.506;5.470;2023-04-24T00:51:01;11.10;80.70
78619;DHT22;67941;52.506;5.470;2023-04-24T00:53:51;11.10;80.80
78619;DHT22;67941;52.506;5.470;2023-04-24T00:56:20;11.10;80.80
78619;DHT22;67941;52.506;5.470;2023-04-24T00:58:49;11.10;80.80
78619;DHT22;67941;52.506;5.470;2023-04-24T01:01:20;11.10;80.80
78619;DHT22;67941;52.506;5.470;2023-04-24T01:03:51;11.10;80.90
78619;DHT22;67941;52.506;5.470;2023-04-24T01:06:22;11.10;80.90
78619;DHT22;67941;52.506;5.470;2023-04-24T01:08:55;11.10;80.90
78619;DHT22;67941;52.506;5.470;2023-04-24T01:11:24;11.10;80.90
78619;DHT22;67941;52.506;5.470;2023-04-24T01:13:53;11.10;80.90
78619;DHT22;67941;52.506;5.470;2023-04-24T01:16:22;11.10;80.90
78619;DHT22;67941;52.506;5.470;2023-04-24T01:18:53;11.10;81.00
78619;DHT22;67941;52.506;5.470;2023-04-24T01:21:23;11.10;80.90
78619;DHT22;67941;52.506;5.470;2023-04-24T01:23:59;11.10;80.90
78619;DHT22;67941;52.506;5.470;2023-04-24T01:26:28;11.10;80.90
78619;DHT22;67941;52.506;5.470;2023-04-24T01:28:57;11.10;80.90
78619;DHT22;67941;52.506;5.470;2023-04-24T01:31:26;11.10;80.90
78619;DHT22;67941;52.506;5.470;2023-04-24T01:33:56;11.10;80.90
78619;DHT22;67941;52.506;5.470;2023-04-24T01:36:27;11.10;81.00
78619;DHT22;67941;52.506;5.470;2023-04-24T01:38:59;11.10;81.00
78619;DHT22;67941;52.506;5.470;2023-04-24T01:41:29;11.10;81.00
78619;DHT22;67941;52.506;5.470;2023-04-24T01:43:58;11.10;81.00
78619;DHT22;67941;52.506;5.470;2023-04-24T01:46:27;11.10;81.00
78619;DHT22;67941;52.506;5.470;2023-04-24T01:48:58;11.10;80.90
78619;DHT22;67941;52.506;5.470;2023-04-24T01:51:28;11.10;81.00
78619;DHT22;67941;52.506;5.470;2023-04-24T01:54:00;11.00;80.80
78619;DHT22;67941;52.506;5.470;2023-04-24T01:56:29;10.90;80.80
78619;DHT22;67941;52.506;5.470;2023-04-24T01:58:58;10.90;80.80
78619;DHT22;67941;52.506;5.470;2023-04-24T02:01:33;10.80;80.80
78619;DHT22;67941;52.506;5.470;2023-04-24T02:04:03;10.70;80.80
78619;DHT22;67941;52.506;5.470;2023-04-24T02:06:32;10.60;80.70
78619;DHT22;67941;52.506;5.470;2023-04-24T02:09:03;10.50;80.70
78619;DHT22;67941;52.506;5.470;2023-04-24T02:11:32;10.40;80.80
78619;DHT22;67941;52.506;5.470;2023-04-24T02:14:01;10.40;80.80
78619;DHT22;67941;52.506;5.470;2023-04-24T02:16:31;10.30;80.90
78619;DHT22;67941;52.506;5.470;2023-04-24T02:19:01;10.30;81.00
78619;DHT22;67941;52.506;5.470;2023-04-24T02:21:30;10.30;81.00
78619;DHT22;67941;52.506;5.470;2023-04-24T02:23:59;10.20;81.00
78619;DHT22;67941;52.506;5.470;2023-04-24T02:26:30;10.20;81.00
78619;DHT22;67941;52.506;5.470;2023-04-24T02:28:59;10.20;81.10
78619;DHT22;67941;52.506;5.470;2023-04-24T02:31:28;10.20;81.10
78619;DHT22;67941;52.506;5.470;2023-04-24T02:33:57;10.20;81.10
78619;DHT22;67941;52.506;5.470;2023-04-24T02:36:25;10.20;81.20
78619;DHT22;67941;52.506;5.470;2023-04-24T02:38:54;10.10;81.10
78619;DHT22;67941;52.506;5.470;2023-04-24T02:41:23;10.10;81.00
78619;DHT22;67941;52.506;5.470;2023-04-24T02:43:59;10.10;80.90
78619;DHT22;67941;52.506;5.470;2023-04-24T02:46:28;10.00;81.00
78619;DHT22;67941;52.506;5.470;2023-04-24T02:48:57;10.00;80.90
78619;DHT22;67941;52.506;5.470;2023-04-24T02:51:26;9.90;80.90
78619;DHT22;67941;52.506;5.470;2023-04-24T02:53:55;9.80;81.00
78619;DHT22;67941;52.506;5.470;2023-04-24T02:56:24;9.70;81.00
78619;DHT22;67941;52.506;5.470;2023-04-24T02:58:54;9.70;81.10
78619;DHT22;67941;52.506;5.470;2023-04-24T03:01:25;9.60;81.10
78619;DHT22;67941;52.506;5.470;2023-04-24T03:03:54;9.60;81.10
78619;DHT22;67941;52.506;5.470;2023-04-24T03:06:23;9.60;81.20
78619;DHT22;67941;52.506;5.470;2023-04-24T03:08:53;9.50;81.20
78619;DHT22;67941;52.506;5.470;2023-04-24T03:11:21;9.50;81.20
78619;DHT22;67941;52.506;5.470;2023-04-24T03:13:51;9.50;81.30
78619;DHT22;67941;52.506;5.470;2023-04-24T03:16:20;9.50;81.30
78619;DHT22;67941;52.506;5.470;2023-04-24T03:18:51;9.50;81.40
78619;DHT22;67941;52.506;5.470;2023-04-24T03:21:21;9.50;81.40
78619;DHT22;67941;52.506;5.470;2023-04-24T03:23:50;9.50;81.40
78619;DHT22;67941;52.506;5.470;2023-04-24T03:26:19;9.60;81.40
78619;DHT22;67941;52.506;5.470;2023-04-24T03:29:02;9.60;81.50
78619;DHT22;67941;52.506;5.470;2023-04-24T03:31:31;9.60;81.50
78619;DHT22;67941;52.506;5.470;2023-04-24T03:34:03;9.60;81.40
78619;DHT22;67941;52.506;5.470;2023-04-24T03:36:32;9.70;81.50
78619;DHT22;67941;52.506;5.470;2023-04-24T03:39:02;9.70;81.50
78619;DHT22;67941;52.506;5.470;2023-04-24T03:41:33;9.70;81.40
78619;DHT22;67941;52.506;5.470;2023-04-24T03:44:18;9.70;81.50
78619;DHT22;67941;52.506;5.470;2023-04-24T03:46:47;9.70;81.50
78619;DHT22;67941;52.506;5.470;2023-04-24T03:49:21;9.70;81.50
78619;DHT22;67941;52.506;5.470;2023-04-24T03:51:50;9.70;81.50
78619;DHT22;67941;52.506;5.470;2023-04-24T03:54:22;9.70;81.50
78619;DHT22;67941;52.506;5.470;2023-04-24T03:56:53;9.70;81.50
78619;DHT22;67941;52.506;5.470;2023-04-24T03:59:23;9.70;81.50
78619;DHT22;67941;52.506;5.470;2023-04-24T04:02:07;9.60;81.50
78619;DHT22;67941;52.506;5.470;2023-04-24T04:04:39;9.60;81.30
78619;DHT22;67941;52.506;5.470;2023-04-24T04:07:08;9.50;81.40
78619;DHT22;67941;52.506;5.470;2023-04-24T04:09:37;9.50;81.40
78619;DHT22;67941;52.506;5.470;2023-04-24T04:12:06;9.50;81.50
78619;DHT22;67941;52.506;5.470;2023-04-24T04:14:36;9.50;81.60
78619;DHT22;67941;52.506;5.470;2023-04-24T04:17:05;9.50;81.60
78619;DHT22;67941;52.506;5.470;2023-04-24T04:19:34;9.50;81.70
78619;DHT22;67941;52.506;5.470;2023-04-24T04:22:06;9.50;81.80
78619;DHT22;67941;52.506;5.470;2023-04-24T04:24:40;9.50;81.80
78619;DHT22;67941;52.506;5.470;2023-04-24T04:27:10;9.60;81.90
78619;DHT22;67941;52.506;5.470;2023-04-24T04:29:49;9.60;81.80
78619;DHT22;67941;52.506;5.470;2023-04-24T04:32:19;9.60;81.80
78619;DHT22;67941;52.506;5.470;2023-04-24T04:34:49;9.60;81.80
78619;DHT22;67941;52.506;5.470;2023-04-24T04:37:22;9.70;81.90
78619;DHT22;67941;52.506;5.470;2023-04-24T04:40:08;9.70;81.80
78619;DHT22;67941;52.506;5.470;2023-04-24T04:42:45;9.70;81.80
78619;DHT22;67941;52.506;5.470;2023-04-24T04:48:21;9.70;81.80
78619;DHT22;67941;52.506;5.470;2023-04-24T04:50:50;9.70;81.80
78619;DHT22;67941;52.506;5.470;2023-04-24T04:53:24;9.70;81.80
78619;DHT22;67941;52.506;5.470;2023-04-24T04:55:52;9.70;81.90
78619;DHT22;67941;52.506;5.470;2023-04-24T04:58:26;9.70;81.90
78619;DHT22;67941;52.506;5.470;2023-04-24T05:00:58;9.80;81.90
78619;DHT22;67941;52.506;5.470;2023-04-24T05:03:36;9.80;82.00
78619;DHT22;67941;52.506;5.470;2023-04-24T05:06:09;9.80;81.90
78619;DHT22;67941;52.506;5.470;2023-04-24T05:08:41;9.80;82.00
78619;DHT22;67941;52.506;5.470;2023-04-24T05:11:21;9.90;81.90
78619;DHT22;67941;52.506;5.470;2023-04-24T05:13:51;9.90;82.00
78619;DHT22;67941;52.506;5.470;2023-04-24T05:16:28;9.90;81.90
78619;DHT22;67941;52.506;5.470;2023-04-24T05:18:57;9.90;81.90
78619;DHT22;67941;52.506;5.470;2023-04-24T05:21:31;9.90;82.00
78619;DHT22;67941;52.506;5.470;2023-04-24T05:24:03;9.90;81.90
78619;DHT22;67941;52.506;5.470;2023-04-24T05:26:52;9.80;81.90
78619;DHT22;67941;52.506;5.470;2023-04-24T05:29:25;9.80;81.90
78619;DHT22;67941;52.506;5.470;2023-04-24T05:31:56;9.80;81.90
78619;DHT22;67941;52.506;5.470;2023-04-24T05:34:26;9.80;81.80
78619;DHT22;67941;52.506;5.470;2023-04-24T05:36:56;9.70;81.90
78619;DHT22;67941;52.506;5.470;2023-04-24T05:39:28;9.70;81.90
78619;DHT22;67941;52.506;5.470;2023-04-24T05:41:59;9.70;82.10
78619;DHT22;67941;52.506;5.470;2023-04-24T05:44:29;9.70;82.00
78619;DHT22;67941;52.506;5.470;2023-04-24T05:46:58;9.70;82.00
78619;DHT22;67941;52.506;5.470;2023-04-24T05:49:28;9.70;82.10
78619;DHT22;67941;52.506;5.470;2023-04-24T05:51:57;9.70;82.10
78619;DHT22;67941;52.506;5.470;2023-04-24T05:54:28;9.60;82.10
78619;DHT22;67941;52.506;5.470;2023-04-24T05:56:57;9.60;82.10
78619;DHT22;67941;52.506;5.470;2023-04-24T05:59:41;9.60;82.20
78619;DHT22;67941;52.506;5.470;2023-04-24T06:02:10;9.70;82.30
78619;DHT22;67941;52.506;5.470;2023-04-24T06:04:39;9.70;82.40
78619;DHT22;67941;52.506;5.470;2023-04-24T06:07:10;9.80;82.30
78619;DHT22;67941;52.506;5.470;2023-04-24T06:09:44;9.80;82.20
78619;DHT22;67941;52.506;5.470;2023-04-24T06:12:13;9.80;82.00
78619;DHT22;67941;52.506;5.470;2023-04-24T06:15:02;9.70;82.00
78619;DHT22;67941;52.506;5.470;2023-04-24T06:17:51;9.70;82.00
78619;DHT22;67941;52.506;5.470;2023-04-24T06:20:20;9.60;82.00
78619;DHT22;67941;52.506;5.470;2023-04-24T06:22:49;9.50;81.90
78619;DHT22;67941;52.506;5.470;2023-04-24T06:25:21;9.50;81.90
78619;DHT22;67941;52.506;5.470;2023-04-24T06:27:50;9.40;81.90
78619;DHT22;67941;52.506;5.470;2023-04-24T06:30:19;9.40;81.90
78619;DHT22;67941;52.506;5.470;2023-04-24T06:32:51;9.20;81.90
78619;DHT22;67941;52.506;5.470;2023-04-24T06:35:20;9.20;82.00
78619;DHT22;67941;52.506;5.470;2023-04-24T06:37:49;9.10;82.00
78619;DHT22;67941;52.506;5.470;2023-04-24T06:40:20;9.00;82.00
78619;DHT22;67941;52.506;5.470;2023-04-24T06:42:50;9.00;82.10
78619;DHT22;67941;52.506;5.470;2023-04-24T06:45:19;8.90;82.10
78619;DHT22;67941;52.506;5.470;2023-04-24T06:47:48;8.80;82.20
78619;DHT22;67941;52.506;5.470;2023-04-24T06:50:17;8.80;82.30
78619;DHT22;67941;52.506;5.470;2023-04-24T06:52:46;8.80;82.40
78619;DHT22;67941;52.506;5.470;2023-04-24T06:55:15;8.70;82.50
78619;DHT22;67941;52.506;5.470;2023-04-24T06:57:46;8.80;82.60
78619;DHT22;67941;52.506;5.470;2023-04-24T07:00:16;8.70;82.50
78619;DHT22;67941;52.506;5.470;2023-04-24T07:02:45;8.70;82.50
78619;DHT22;67941;52.506;5.470;2023-04-24T07:05:13;8.70;82.60
78619;DHT22;67941;52.506;5.470;2023-04-24T07:07:46;8.70;82.60
78619;DHT22;67941;52.506;5.470;2023-04-24T07:10:16;8.60;82.60
78619;DHT22;67941;52.506;5.470;2023-04-24T07:12:48;8.60;82.60
78619;DHT22;67941;52.506;5.470;2023-04-24T07:15:17;8.60;82.60
78619;DHT22;67941;52.506;5.470;2023-04-24T07:17:46;8.60;82.60
78619;DHT22;67941;52.506;5.470;2023-04-24T07:20:15;8.60;82.60
78619;DHT22;67941;52.506;5.470;2023-04-24T07:22:44;8.60;82.60
78619;DHT22;67941;52.506;5.470;2023-04-24T07:25:13;8.60;82.70
78619;DHT22;67941;52.506;5.470;2023-04-24T07:27:42;8.60;82.70
78619;DHT22;67941;52.506;5.470;2023-04-24T07:30:14;8.60;82.80
78619;DHT22;67941;52.506;5.470;2023-04-24T07:32:43;8.50;82.70
78619;DHT22;67941;52.506;5.470;2023-04-24T07:35:12;8.50;82.80
78619;DHT22;67941;52.506;5.470;2023-04-24T07:37:41;8.50;82.80
78619;DHT22;67941;52.506;5.470;2023-04-24T07:40:12;8.50;82.90
78619;DHT22;67941;52.506;5.470;2023-04-24T07:42:41;8.60;83.00
78619;DHT22;67941;52.506;5.470;2023-04-24T07:45:10;8.60;83.00
78619;DHT22;67941;52.506;5.470;2023-04-24T07:47:41;8.60;82.90
78619;DHT22;67941;52.506;5.470;2023-04-24T07:50:11;8.60;82.90
78619;DHT22;67941;52.506;5.470;2023-04-24T07:52:40;8.60;82.80
78619;DHT22;67941;52.506;5.470;2023-04-24T07:55:09;8.60;82.90
78619;DHT22;67941;52.506;5.470;2023-04-24T07:57:38;8.60;83.00
78619;DHT22;67941;52.506;5.470;2023-04-24T08:00:08;8.60;83.00
78619;DHT22;67941;52.506;5.470;2023-04-24T08:02:58;8.60;83.00
78619;DHT22;67941;52.506;5.470;2023-04-24T08:05:26;8.60;83.10
78619;DHT22;67941;52.506;5.470;2023-04-24T08:07:55;8.60;83.00
78619;DHT22;67941;52.506;5.470;2023-04-24T08:10:25;8.60;83.10
78619;DHT22;67941;52.506;5.470;2023-04-24T08:12:54;8.70;83.20
78619;DHT22;67941;52.506;5.470;2023-04-24T08:15:23;8.70;83.20
78619;DHT22;67941;52.506;5.470;2023-04-24T08:17:52;8.80;83.20
78619;DHT22;67941;52.506;5.470;2023-04-24T08:20:23;8.80;83.30
78619;DHT22;67941;52.506;5.470;2023-04-24T08:22:52;8.90;83.20
78619;DHT22;67941;52.506;5.470;2023-04-24T08:25:22;8.90;83.20
78619;DHT22;67941;52.506;5.470;2023-04-24T08:27:51;8.90;83.20
78619;DHT22;67941;52.506;5.470;2023-04-24T08:30:20;9.00;83.20
78619;DHT22;67941;52.506;5.470;2023-04-24T08:32:49;9.00;83.30
78619;DHT22;67941;52.506;5.470;2023-04-24T08:35:18;9.00;83.30
78619;DHT22;67941;52.506;5.470;2023-04-24T08:37:50;9.00;83.40
78619;DHT22;67941;52.506;5.470;2023-04-24T08:40:23;9.00;83.30
78619;DHT22;67941;52.506;5.470;2023-04-24T08:42:54;9.00;83.30
78619;DHT22;67941;52.506;5.470;2023-04-24T08:45:24;9.00;83.20
78619;DHT22;67941;52.506;5.470;2023-04-24T08:47:53;9.00;83.20
78619;DHT22;67941;52.506;5.470;2023-04-24T08:50:23;9.00;83.20
78619;DHT22;67941;52.506;5.470;2023-04-24T08:52:54;9.00;83.00
78619;DHT22;67941;52.506;5.470;2023-04-24T08:55:24;9.00;83.00
78619;DHT22;67941;52.506;5.470;2023-04-24T08:57:53;9.00;83.00
78619;DHT22;67941;52.506;5.470;2023-04-24T09:00:22;9.00;83.00
78619;DHT22;67941;52.506;5.470;2023-04-24T09:02:53;9.00;83.10
78619;DHT22;67941;52.506;5.470;2023-04-24T09:05:22;8.90;83.10
78619;DHT22;67941;52.506;5.470;2023-04-24T09:07:56;8.90;83.00
78619;DHT22;67941;52.506;5.470;2023-04-24T09:10:44;8.90;83.10
78619;DHT22;67941;52.506;5.470;2023-04-24T09:13:14;8.90;83.10
78619;DHT22;67941;52.506;5.470;2023-04-24T09:15:43;8.90;83.10
78619;DHT22;67941;52.506;5.470;2023-04-24T09:18:11;8.90;83.30
78619;DHT22;67941;52.506;5.470;2023-04-24T09:20:59;8.90;83.30
78619;DHT22;67941;52.506;5.470;2023-04-24T09:23:31;9.00;83.30
78619;DHT22;67941;52.506;5.470;2023-04-24T09:26:02;9.00;83.30
78619;DHT22;67941;52.506;5.470;2023-04-24T09:28:32;9.00;83.30
78619;DHT22;67941;52.506;5.470;2023-04-24T09:31:06;9.00;83.40
78619;DHT22;67941;52.506;5.470;2023-04-24T09:33:36;9.10;83.50
78619;DHT22;67941;52.506;5.470;2023-04-24T09:36:05;9.20;83.90
78619;DHT22;67941;52.506;5.470;2023-04-24T09:38:38;9.50;84.10
78619;DHT22;67941;52.506;5.470;2023-04-24T09:41:08;9.70;84.00
78619;DHT22;67941;52.506;5.470;2023-04-24T09:43:41;9.90;84.00
78619;DHT22;67941;52.506;5.470;2023-04-24T09:46:11;10.10;83.90
78619;DHT22;67941;52.506;5.470;2023-04-24T09:48:39;10.20;83.70
78619;DHT22;67941;52.506;5.470;2023-04-24T09:51:08;10.30;83.60
78619;DHT22;67941;52.506;5.470;2023-04-24T09:53:44;10.40;83.20
78619;DHT22;67941;52.506;5.470;2023-04-24T09:56:18;10.40;82.90
78619;DHT22;67941;52.506;5.470;2023-04-24T09:58:47;10.30;82.50
78619;DHT22;67941;52.506;5.470;2023-04-24T10:01:15;10.10;82.10
78619;DHT22;67941;52.506;5.470;2023-04-24T10:03:46;9.90;81.70
78619;DHT22;67941;52.506;5.470;2023-04-24T10:06:14;9.70;81.70
78619;DHT22;67941;52.506;5.470;2023-04-24T10:08:46;9.50;81.90
78619;DHT22;67941;52.506;5.470;2023-04-24T10:11:16;9.40;81.90
78619;DHT22;67941;52.506;5.470;2023-04-24T10:13:45;9.20;82.20
78619;DHT22;67941;52.506;5.470;2023-04-24T10:16:14;9.20;82.40
78619;DHT22;67941;52.506;5.470;2023-04-24T10:18:44;9.30;83.00
78619;DHT22;67941;52.506;5.470;2023-04-24T10:21:13;9.40;83.20
78619;DHT22;67941;52.506;5.470;2023-04-24T10:23:45;9.60;83.20
78619;DHT22;67941;52.506;5.470;2023-04-24T10:26:15;9.80;83.30
78619;DHT22;67941;52.506;5.470;2023-04-24T10:28:45;10.00;83.30
78619;DHT22;67941;52.506;5.470;2023-04-24T10:31:15;10.10;83.00
78619;DHT22;67941;52.506;5.470;2023-04-24T10:33:45;10.20;82.70
78619;DHT22;67941;52.506;5.470;2023-04-24T10:36:14;10.20;82.50
78619;DHT22;67941;52.506;5.470;2023-04-24T10:38:47;10.30;82.60
78619;DHT22;67941;52.506;5.470;2023-04-24T10:41:18;10.40;82.50
78619;DHT22;67941;52.506;5.470;2023-04-24T10:43:58;10.40;82.30
78619;DHT22;67941;52.506;5.470;2023-04-24T10:46:32;10.50;82.00
78619;DHT22;67941;52.506;5.470;2023-04-24T10:49:04;10.50;81.70
78619;DHT22;67941;52.506;5.470;2023-04-24T10:51:45;10.40;81.40
78619;DHT22;67941;52.506;5.470;2023-04-24T10:54:41;10.40;81.10
78619;DHT22;67941;52.506;5.470;2023-04-24T10:57:27;10.30;81.10
78619;DHT22;67941;52.506;5.470;2023-04-24T11:00:24;10.30;81.30
78619;DHT22;67941;52.506;5.470;2023-04-24T11:02:53;10.30;81.40
78619;DHT22;67941;52.506;5.470;2023-04-24T11:05:48;10.40;81.40
78619;DHT22;67941;52.506;5.470;2023-04-24T11:08:13;10.50;81.20
78619;DHT22;67941;52.506;5.470;2023-04-24T11:10:55;10.60;81.40
78619;DHT22;67941;52.506;5.470;2023-04-24T11:13:25;10.70;81.20
78619;DHT22;67941;52.506;5.470;2023-04-24T11:16:12;10.70;80.90
78619;DHT22;67941;52.506;5.470;2023-04-24T11:18:43;10.80;80.50
78619;DHT22;67941;52.506;5.470;2023-04-24T11:21:17;10.70;80.40
78619;DHT22;67941;52.506;5.470;2023-04-24T11:23:46;10.60;80.20
78619;DHT22;67941;52.506;5.470;2023-04-24T11:26:22;10.60;80.40
78619;DHT22;67941;52.506;5.470;2023-04-24T11:29:06;10.60;80.80
78619;DHT22;67941;52.506;5.470;2023-04-24T11:31:38;10.80;81.20
78619;DHT22;67941;52.506;5.470;2023-04-24T11:34:09;11.00;81.20
78619;DHT22;67941;52.506;5.470;2023-04-24T11:36:39;11.20;81.00
78619;DHT22;67941;52.506;5.470;2023-04-24T11:39:08;11.40;80.90
78619;DHT22;67941;52.506;5.470;2023-04-24T11:41:39;11.50;80.30
78619;DHT22;67941;52.506;5.470;2023-04-24T11:44:09;11.50;79.70
78619;DHT22;67941;52.506;5.470;2023-04-24T11:46:38;11.40;79.10
78619;DHT22;67941;52.506;5.470;2023-04-24T11:49:06;11.10;78.80
78619;DHT22;67941;52.506;5.470;2023-04-24T11:51:35;10.80;78.40
78619;DHT22;67941;52.506;5.470;2023-04-24T11:54:07;10.50;78.50
78619;DHT22;67941;52.506;5.470;2023-04-24T11:56:39;10.20;78.80
78619;DHT22;67941;52.506;5.470;2023-04-24T11:59:13;10.00;79.10
78619;DHT22;67941;52.506;5.470;2023-04-24T12:01:44;10.00;79.60
78619;DHT22;67941;52.506;5.470;2023-04-24T12:04:14;9.90;79.80
78619;DHT22;67941;52.506;5.470;2023-04-24T12:06:58;9.90;79.90
78619;DHT22;67941;52.506;5.470;2023-04-24T12:09:27;10.00;79.90
78619;DHT22;67941;52.506;5.470;2023-04-24T12:11:59;10.10;80.00
78619;DHT22;67941;52.506;5.470;2023-04-24T12:14:28;10.20;80.10
78619;DHT22;67941;52.506;5.470;2023-04-24T12:16:57;10.40;80.10
78619;DHT22;67941;52.506;5.470;2023-04-24T12:19:29;10.50;79.80
78619;DHT22;67941;52.506;5.470;2023-04-24T12:22:03;10.60;79.20
78619;DHT22;67941;52.506;5.470;2023-04-24T12:24:32;10.50;78.90
78619;DHT22;67941;52.506;5.470;2023-04-24T12:27:03;10.40;78.70
78619;DHT22;67941;52.506;5.470;2023-04-24T12:29:32;10.20;78.60
78619;DHT22;67941;52.506;5.470;2023-04-24T12:32:01;10.20;78.90
78619;DHT22;67941;52.506;5.470;2023-04-24T12:34:31;10.20;79.30
78619;DHT22;67941;52.506;5.470;2023-04-24T12:37:10;10.30;79.60
78619;DHT22;67941;52.506;5.470;2023-04-24T12:39:38;10.50;79.80
78619;DHT22;67941;52.506;5.470;2023-04-24T12:42:10;10.70;79.50
78619;DHT22;67941;52.506;5.470;2023-04-24T12:44:40;10.80;78.90
78619;DHT22;67941;52.506;5.470;2023-04-24T12:47:08;10.90;78.50
78619;DHT22;67941;52.506;5.470;2023-04-24T12:49:37;10.80;78.20
78619;DHT22;67941;52.506;5.470;2023-04-24T12:52:06;10.70;78.00
78619;DHT22;67941;52.506;5.470;2023-04-24T12:54:35;10.60;78.20
78619;DHT22;67941;52.506;5.470;2023-04-24T12:57:04;10.60;78.30
78619;DHT22;67941;52.506;5.470;2023-04-24T12:59:35;10.60;78.20
78619;DHT22;67941;52.506;5.470;2023-04-24T13:02:05;10.70;78.40
78619;DHT22;67941;52.506;5.470;2023-04-24T13:04:35;10.70;78.20
78619;DHT22;67941;52.506;5.470;2023-04-24T13:07:05;10.70;78.20
78619;DHT22;67941;52.506;5.470;2023-04-24T13:09:34;10.80;78.30
78619;DHT22;67941;52.506;5.470;2023-04-24T13:12:04;10.90;78.30
78619;DHT22;67941;52.506;5.470;2023-04-24T13:14:36;11.10;78.40
78619;DHT22;67941;52.506;5.470;2023-04-24T13:17:05;11.20;78.00
78619;DHT22;67941;52.506;5.470;2023-04-24T13:19:39;11.40;77.70
78619;DHT22;67941;52.506;5.470;2023-04-24T13:22:09;11.50;77.60
78619;DHT22;67941;52.506;5.470;2023-04-24T13:24:39;11.60;77.50
78619;DHT22;67941;52.506;5.470;2023-04-24T13:27:08;11.70;77.30
78619;DHT22;67941;52.506;5.470;2023-04-24T13:29:40;11.70;77.00
78619;DHT22;67941;52.506;5.470;2023-04-24T13:32:09;11.80;76.60
78619;DHT22;67941;52.506;5.470;2023-04-24T13:34:38;11.70;76.30
78619;DHT22;67941;52.506;5.470;2023-04-24T13:37:07;11.70;76.20
78619;DHT22;67941;52.506;5.470;2023-04-24T13:39:36;11.60;76.10
78619;DHT22;67941;52.506;5.470;2023-04-24T13:42:05;11.50;76.00
78619;DHT22;67941;52.506;5.470;2023-04-24T13:44:34;11.40;75.90
78619;DHT22;67941;52.506;5.470;2023-04-24T13:47:05;11.30;76.00
78619;DHT22;67941;52.506;5.470;2023-04-24T13:49:34;11.20;76.10
78619;DHT22;67941;52.506;5.470;2023-04-24T13:52:03;11.10;76.10
78619;DHT22;67941;52.506;5.470;2023-04-24T13:54:33;11.10;76.10
78619;DHT22;67941;52.506;5.470;2023-04-24T13:57:02;11.10;75.90
78619;DHT22;67941;52.506;5.470;2023-04-24T13:59:31;11.10;75.80
78619;DHT22;67941;52.506;5.470;2023-04-24T14:02:00;11.10;75.80
78619;DHT22;67941;52.506;5.470;2023-04-24T14:04:31;11.10;75.90
78619;DHT22;67941;52.506;5.470;2023-04-24T14:07:00;11.10;75.70
78619;DHT22;67941;52.506;5.470;2023-04-24T14:09:29;11.20;75.60
78619;DHT22;67941;52.506;5.470;2023-04-24T14:11:58;11.10;75.50
78619;DHT22;67941;52.506;5.470;2023-04-24T14:14:27;11.10;75.50
78619;DHT22;67941;52.506;5.470;2023-04-24T14:16:56;11.10;75.60
78619;DHT22;67941;52.506;5.470;2023-04-24T14:19:25;11.20;75.70
78619;DHT22;67941;52.506;5.470;2023-04-24T14:21:56;11.30;75.70
78619;DHT22;67941;52.506;5.470;2023-04-24T14:24:25;11.40;75.60
78619;DHT22;67941;52.506;5.470;2023-04-24T14:26:54;11.50;75.70
78619;DHT22;67941;52.506;5.470;2023-04-24T14:29:23;11.50;75.50
78619;DHT22;67941;52.506;5.470;2023-04-24T14:31:52;11.50;75.40
78619;DHT22;67941;52.506;5.470;2023-04-24T14:34:21;11.60;75.00
78619;DHT22;67941;52.506;5.470;2023-04-24T14:36:50;11.50;75.00
78619;DHT22;67941;52.506;5.470;2023-04-24T14:39:21;11.60;75.00
78619;DHT22;67941;52.506;5.470;2023-04-24T14:41:50;11.70;74.80
78619;DHT22;67941;52.506;5.470;2023-04-24T14:44:19;11.70;74.50
78619;DHT22;67941;52.506;5.470;2023-04-24T14:46:48;11.60;74.20
78619;DHT22;67941;52.506;5.470;2023-04-24T14:49:17;11.50;74.00
78619;DHT22;67941;52.506;5.470;2023-04-24T14:51:46;11.40;74.10
78619;DHT22;67941;52.506;5.470;2023-04-24T14:54:15;11.30;74.20
78619;DHT22;67941;52.506;5.470;2023-04-24T14:56:46;11.30;74.30
78619;DHT22;67941;52.506;5.470;2023-04-24T14:59:15;11.20;74.20
78619;DHT22;67941;52.506;5.470;2023-04-24T15:01:44;11.10;74.00
78619;DHT22;67941;52.506;5.470;2023-04-24T15:04:13;11.10;74.00
78619;DHT22;67941;52.506;5.470;2023-04-24T15:06:42;11.00;74.10
78619;DHT22;67941;52.506;5.470;2023-04-24T15:09:11;11.00;74.30
78619;DHT22;67941;52.506;5.470;2023-04-24T15:11:39;11.10;74.30
78619;DHT22;67941;52.506;5.470;2023-04-24T15:14:11;11.10;74.30
78619;DHT22;67941;52.506;5.470;2023-04-24T15:16:40;11.10;74.00
78619;DHT22;67941;52.506;5.470;2023-04-24T15:19:09;11.10;74.10
78619;DHT22;67941;52.506;5.470;2023-04-24T15:21:38;11.30;74.20
78619;DHT22;67941;52.506;5.470;2023-04-24T15:24:08;11.40;74.00
78619;DHT22;67941;52.506;5.470;2023-04-24T15:26:37;11.50;73.70
78619;DHT22;67941;52.506;5.470;2023-04-24T15:29:06;11.50;73.60
78619;DHT22;67941;52.506;5.470;2023-04-24T15:31:37;11.50;73.70
78619;DHT22;67941;52.506;5.470;2023-04-24T15:34:06;11.60;73.20
78619;DHT22;67941;52.506;5.470;2023-04-24T15:36:35;11.50;73.00
78619;DHT22;67941;52.506;5.470;2023-04-24T15:39:04;11.30;72.90
78619;DHT22;67941;52.506;5.470;2023-04-24T15:41:34;11.10;73.00
78619;DHT22;67941;52.506;5.470;2023-04-24T15:44:03;11.10;73.00
78619;DHT22;67941;52.506;5.470;2023-04-24T15:46:36;11.00;72.90
78619;DHT22;67941;52.506;5.470;2023-04-24T15:49:05;10.90;73.00
78619;DHT22;67941;52.506;5.470;2023-04-24T15:51:34;10.90;73.30
78619;DHT22;67941;52.506;5.470;2023-04-24T15:54:03;10.90;73.50
78619;DHT22;67941;52.506;5.470;2023-04-24T15:56:32;11.00;73.30
78619;DHT22;67941;52.506;5.470;2023-04-24T15:59:01;11.10;73.20
78619;DHT22;67941;52.506;5.470;2023-04-24T16:01:30;11.10;73.20
78619;DHT22;67941;52.506;5.470;2023-04-24T16:04:02;11.10;73.10